El Paso, TX (88549)

6:29 PM MDT on July 27, 2016 (GMT -0600)
Shock | | Change Station

Elev 3924 ft 31.76 °N, 106.33 °W | Updated 13 minutes ago

Mostly Cloudy
Mostly Cloudy
88.5 °F
Feels Like 87 °F
N
9.4
Wind Variable Wind from SSW

Today
High -- | Low -- °F
--% Chance of Precip.
Yesterday
High -- | Low -- °F
Precip. -- in
Pressure 29.76 in
Visibility 10.0 miles
Clouds Few 7000 ft
Scattered Clouds 13000 ft
Mostly Cloudy 16000 ft
Heat Index 87 °F
Dew Point 56 °F
Humidity 33%
Rainfall 0.02 in
Snow Depth Not available.
6:18 AM 8:05 PM
Last Quarter, 38% visible
METAR KELP 272351Z 10008KT 10SM FEW070 SCT130 BKN160 33/14 A3000 RMK AO2 RAE2259 SLP078 P0000 60000 T03280139 10356 20283 56010
Pressure 29.76 in
Visibility 10.0 miles
Clouds Few 7000 ft
Scattered Clouds 13000 ft
Mostly Cloudy 16000 ft
Heat Index 87 °F
Dew Point 56 °F
Humidity 33%
Rainfall 0.02 in
Snow Depth Not available.
6:18 AM 8:05 PM
Last Quarter, 38% visible
METAR KELP 272351Z 10008KT 10SM FEW070 SCT130 BKN160 33/14 A3000 RMK AO2 RAE2259 SLP078 P0000 60000 T03280139 10356 20283 56010

10-Day Weather Forecast

Almanac

Astronomy

Jul. 27, 2016 Rise Set
Actual Time
Civil Twilight
Nautical Twilight
Astronomical Twilight
Moon
Length of Visible Light
Length of Day
Tomorrow will be .
, % of the Moon is Illuminated

Today's Extremes

State Highs State Lows

Community

WunderPhotos

Upload Photos

1,927,975 photos uploaded!

WunderBlog® & News

Nearby

Air Quality

  Air Quality AQ Index Pollutant
Not available.

Snow Depth

Station Depth Elevation

Earthquake Activity

City Distance Mag. Time & Date
Minimum magnitude displayed is 2.5.

Coastal Water Temperatures

Place Temperature

Stations

Nearby Weather Stations

Station Location Temp. Windchill Dew Point Humidity Wind Precip. Elev Updated Type
                   

Watches & Warnings

There are currently no watches in effect.